sensor_id;sensor_type;location;lat;lon;timestamp;P1;durP1;ratioP1;P2;durP2;ratioP2
25657;SDS011;13517;59.320;18.042;2022-12-24T00:02:05;2.55;;;1.65;;
25657;SDS011;13517;59.320;18.042;2022-12-24T00:04:31;4.95;;;1.58;;
25657;SDS011;13517;59.320;18.042;2022-12-24T00:06:56;5.18;;;1.95;;
25657;SDS011;13517;59.320;18.042;2022-12-24T00:09:22;5.18;;;2.03;;
25657;SDS011;13517;59.320;18.042;2022-12-24T00:11:47;6.32;;;1.92;;
25657;SDS011;13517;59.320;18.042;2022-12-24T00:14:13;5.60;;;1.80;;
25657;SDS011;13517;59.320;18.042;2022-12-24T00:16:38;3.90;;;1.55;;
25657;SDS011;13517;59.320;18.042;2022-12-24T00:19:03;6.72;;;1.88;;
25657;SDS011;13517;59.320;18.042;2022-12-24T00:21:29;3.45;;;1.75;;
25657;SDS011;13517;59.320;18.042;2022-12-24T00:23:54;6.45;;;1.90;;
25657;SDS011;13517;59.320;18.042;2022-12-24T00:26:20;6.80;;;1.90;;
25657;SDS011;13517;59.320;18.042;2022-12-24T00:28:45;9.02;;;2.05;;
25657;SDS011;13517;59.320;18.042;2022-12-24T00:31:12;5.50;;;2.00;;
25657;SDS011;13517;59.320;18.042;2022-12-24T00:33:39;3.83;;;2.00;;
25657;SDS011;13517;59.320;18.042;2022-12-24T00:36:05;3.38;;;1.70;;
25657;SDS011;13517;59.320;18.042;2022-12-24T00:38:31;6.45;;;2.55;;
25657;SDS011;13517;59.320;18.042;2022-12-24T00:40:58;5.75;;;1.75;;
25657;SDS011;13517;59.320;18.042;2022-12-24T00:43:28;2.70;;;1.60;;
25657;SDS011;13517;59.320;18.042;2022-12-24T00:45:54;3.92;;;1.88;;
25657;SDS011;13517;59.320;18.042;2022-12-24T00:48:19;7.63;;;1.88;;
25657;SDS011;13517;59.320;18.042;2022-12-24T00:50:46;4.53;;;1.73;;
25657;SDS011;13517;59.320;18.042;2022-12-24T00:53:12;3.67;;;1.45;;
25657;SDS011;13517;59.320;18.042;2022-12-24T00:55:38;6.78;;;1.88;;
25657;SDS011;13517;59.320;18.042;2022-12-24T00:58:03;5.43;;;1.50;;
25657;SDS011;13517;59.320;18.042;2022-12-24T01:00:28;7.68;;;1.73;;
25657;SDS011;13517;59.320;18.042;2022-12-24T01:02:54;3.10;;;1.40;;
25657;SDS011;13517;59.320;18.042;2022-12-24T01:05:19;5.68;;;1.75;;
25657;SDS011;13517;59.320;18.042;2022-12-24T01:07:45;3.97;;;1.50;;
25657;SDS011;13517;59.320;18.042;2022-12-24T01:10:12;6.10;;;1.80;;
25657;SDS011;13517;59.320;18.042;2022-12-24T01:12:40;5.38;;;1.98;;
25657;SDS011;13517;59.320;18.042;2022-12-24T01:15:06;4.40;;;1.92;;
25657;SDS011;13517;59.320;18.042;2022-12-24T01:17:33;4.05;;;1.58;;
25657;SDS011;13517;59.320;18.042;2022-12-24T01:19:59;3.88;;;1.67;;
25657;SDS011;13517;59.320;18.042;2022-12-24T01:22:25;2.67;;;1.50;;
25657;SDS011;13517;59.320;18.042;2022-12-24T01:24:51;7.45;;;2.03;;
25657;SDS011;13517;59.320;18.042;2022-12-24T01:27:17;4.47;;;1.80;;
25657;SDS011;13517;59.320;18.042;2022-12-24T01:29:42;8.00;;;1.85;;
25657;SDS011;13517;59.320;18.042;2022-12-24T01:32:08;3.00;;;1.50;;
25657;SDS011;13517;59.320;18.042;2022-12-24T01:34:33;7.20;;;1.92;;
25657;SDS011;13517;59.320;18.042;2022-12-24T01:36:58;5.15;;;2.00;;
25657;SDS011;13517;59.320;18.042;2022-12-24T01:39:24;4.25;;;1.58;;
25657;SDS011;13517;59.320;18.042;2022-12-24T01:41:50;5.05;;;1.77;;
25657;SDS011;13517;59.320;18.042;2022-12-24T01:47:07;4.63;;;1.77;;
25657;SDS011;13517;59.320;18.042;2022-12-24T01:49:50;2.83;;;1.60;;
25657;SDS011;13517;59.320;18.042;2022-12-24T01:52:20;4.13;;;1.60;;
25657;SDS011;13517;59.320;18.042;2022-12-24T01:54:51;4.05;;;1.73;;
25657;SDS011;13517;59.320;18.042;2022-12-24T01:57:27;4.85;;;1.52;;
25657;SDS011;13517;59.320;18.042;2022-12-24T01:59:57;2.55;;;1.50;;
25657;SDS011;13517;59.320;18.042;2022-12-24T02:02:24;4.13;;;1.67;;
25657;SDS011;13517;59.320;18.042;2022-12-24T02:07:23;2.22;;;1.50;;
25657;SDS011;13517;59.320;18.042;2022-12-24T02:09:50;6.80;;;1.80;;
25657;SDS011;13517;59.320;18.042;2022-12-24T02:12:19;4.45;;;1.63;;
25657;SDS011;13517;59.320;18.042;2022-12-24T02:14:45;3.55;;;2.17;;
25657;SDS011;13517;59.320;18.042;2022-12-24T02:17:19;6.25;;;2.50;;
25657;SDS011;13517;59.320;18.042;2022-12-24T02:30:32;6.75;;;2.00;;
25657;SDS011;13517;59.320;18.042;2022-12-24T02:38:36;4.88;;;1.70;;
25657;SDS011;13517;59.320;18.042;2022-12-24T02:41:17;3.45;;;1.50;;
25657;SDS011;13517;59.320;18.042;2022-12-24T02:43:48;3.50;;;2.30;;
25657;SDS011;13517;59.320;18.042;2022-12-24T02:46:23;8.65;;;2.33;;
25657;SDS011;13517;59.320;18.042;2022-12-24T02:48:51;4.47;;;1.88;;
25657;SDS011;13517;59.320;18.042;2022-12-24T02:51:20;4.40;;;1.77;;
25657;SDS011;13517;59.320;18.042;2022-12-24T02:53:48;8.10;;;2.13;;
25657;SDS011;13517;59.320;18.042;2022-12-24T03:10:41;3.10;;;2.03;;
25657;SDS011;13517;59.320;18.042;2022-12-24T03:13:11;6.45;;;2.10;;
25657;SDS011;13517;59.320;18.042;2022-12-24T03:15:40;6.00;;;1.85;;
25657;SDS011;13517;59.320;18.042;2022-12-24T03:18:08;6.03;;;1.92;;
25657;SDS011;13517;59.320;18.042;2022-12-24T03:20:37;4.72;;;1.88;;
25657;SDS011;13517;59.320;18.042;2022-12-24T03:23:10;5.78;;;2.50;;
25657;SDS011;13517;59.320;18.042;2022-12-24T03:25:38;5.35;;;2.15;;
25657;SDS011;13517;59.320;18.042;2022-12-24T03:28:06;4.80;;;2.35;;
25657;SDS011;13517;59.320;18.042;2022-12-24T03:30:33;4.47;;;1.63;;
25657;SDS011;13517;59.320;18.042;2022-12-24T03:32:59;5.03;;;2.15;;
25657;SDS011;13517;59.320;18.042;2022-12-24T03:35:24;7.40;;;2.70;;
25657;SDS011;13517;59.320;18.042;2022-12-24T03:37:50;4.00;;;2.03;;
25657;SDS011;13517;59.320;18.042;2022-12-24T03:40:16;3.83;;;2.30;;
25657;SDS011;13517;59.320;18.042;2022-12-24T03:42:41;4.20;;;1.92;;
25657;SDS011;13517;59.320;18.042;2022-12-24T03:45:07;5.75;;;2.35;;
25657;SDS011;13517;59.320;18.042;2022-12-24T03:47:33;4.10;;;1.85;;
25657;SDS011;13517;59.320;18.042;2022-12-24T03:49:58;3.70;;;1.73;;
25657;SDS011;13517;59.320;18.042;2022-12-24T03:52:24;4.80;;;1.65;;
25657;SDS011;13517;59.320;18.042;2022-12-24T03:54:49;4.03;;;2.08;;
25657;SDS011;13517;59.320;18.042;2022-12-24T03:57:14;4.25;;;1.98;;
25657;SDS011;13517;59.320;18.042;2022-12-24T03:59:40;7.43;;;1.80;;
25657;SDS011;13517;59.320;18.042;2022-12-24T04:02:05;7.88;;;1.63;;
25657;SDS011;13517;59.320;18.042;2022-12-24T04:04:31;6.00;;;1.73;;
25657;SDS011;13517;59.320;18.042;2022-12-24T04:06:57;2.83;;;1.48;;
25657;SDS011;13517;59.320;18.042;2022-12-24T04:09:23;6.90;;;1.90;;
25657;SDS011;13517;59.320;18.042;2022-12-24T04:11:48;2.90;;;1.80;;
25657;SDS011;13517;59.320;18.042;2022-12-24T04:14:14;3.83;;;1.83;;
25657;SDS011;13517;59.320;18.042;2022-12-24T04:16:39;3.70;;;1.63;;
25657;SDS011;13517;59.320;18.042;2022-12-24T04:19:05;2.70;;;1.65;;
25657;SDS011;13517;59.320;18.042;2022-12-24T04:21:30;3.67;;;1.60;;
25657;SDS011;13517;59.320;18.042;2022-12-24T04:23:55;6.90;;;1.83;;
25657;SDS011;13517;59.320;18.042;2022-12-24T04:26:21;3.15;;;1.50;;
25657;SDS011;13517;59.320;18.042;2022-12-24T04:28:46;5.78;;;1.95;;
25657;SDS011;13517;59.320;18.042;2022-12-24T04:31:13;6.65;;;1.80;;
25657;SDS011;13517;59.320;18.042;2022-12-24T04:33:40;3.88;;;1.67;;
25657;SDS011;13517;59.320;18.042;2022-12-24T04:36:06;4.90;;;1.80;;
25657;SDS011;13517;59.320;18.042;2022-12-24T04:38:34;3.45;;;1.60;;
25657;SDS011;13517;59.320;18.042;2022-12-24T04:41:02;4.32;;;1.70;;
25657;SDS011;13517;59.320;18.042;2022-12-24T04:43:32;6.28;;;1.90;;
25657;SDS011;13517;59.320;18.042;2022-12-24T04:46:11;6.60;;;2.08;;
25657;SDS011;13517;59.320;18.042;2022-12-24T04:48:44;3.50;;;2.13;;
25657;SDS011;13517;59.320;18.042;2022-12-24T04:51:11;4.65;;;2.03;;
25657;SDS011;13517;59.320;18.042;2022-12-24T04:53:38;2.65;;;2.03;;
25657;SDS011;13517;59.320;18.042;2022-12-24T04:56:06;5.53;;;2.15;;
25657;SDS011;13517;59.320;18.042;2022-12-24T04:58:34;6.05;;;2.00;;
25657;SDS011;13517;59.320;18.042;2022-12-24T05:01:06;11.40;;;2.20;;
25657;SDS011;13517;59.320;18.042;2022-12-24T05:03:36;7.13;;;2.03;;
25657;SDS011;13517;59.320;18.042;2022-12-24T05:06:02;5.15;;;1.98;;
25657;SDS011;13517;59.320;18.042;2022-12-24T05:08:29;6.85;;;2.28;;
25657;SDS011;13517;59.320;18.042;2022-12-24T05:10:57;4.60;;;2.05;;
25657;SDS011;13517;59.320;18.042;2022-12-24T05:13:24;5.00;;;1.77;;
25657;SDS011;13517;59.320;18.042;2022-12-24T05:15:49;6.38;;;2.13;;
25657;SDS011;13517;59.320;18.042;2022-12-24T05:18:15;3.03;;;1.48;;
25657;SDS011;13517;59.320;18.042;2022-12-24T05:20:40;6.93;;;1.80;;
25657;SDS011;13517;59.320;18.042;2022-12-24T05:23:06;4.28;;;1.90;;
25657;SDS011;13517;59.320;18.042;2022-12-24T05:25:50;12.05;;;1.83;;
25657;SDS011;13517;59.320;18.042;2022-12-24T05:28:34;15.55;;;2.45;;
25657;SDS011;13517;59.320;18.042;2022-12-24T05:30:59;7.05;;;1.80;;
25657;SDS011;13517;59.320;18.042;2022-12-24T05:33:25;3.22;;;1.80;;
25657;SDS011;13517;59.320;18.042;2022-12-24T05:35:51;3.05;;;1.48;;
25657;SDS011;13517;59.320;18.042;2022-12-24T05:38:17;4.05;;;1.70;;
25657;SDS011;13517;59.320;18.042;2022-12-24T05:40:42;6.15;;;1.70;;
25657;SDS011;13517;59.320;18.042;2022-12-24T05:43:07;7.43;;;1.80;;
25657;SDS011;13517;59.320;18.042;2022-12-24T05:45:33;2.35;;;1.63;;
25657;SDS011;13517;59.320;18.042;2022-12-24T05:47:58;6.97;;;2.20;;
25657;SDS011;13517;59.320;18.042;2022-12-24T05:50:24;4.95;;;1.85;;
25657;SDS011;13517;59.320;18.042;2022-12-24T05:52:49;4.28;;;1.67;;
25657;SDS011;13517;59.320;18.042;2022-12-24T05:55:15;4.90;;;1.58;;
25657;SDS011;13517;59.320;18.042;2022-12-24T05:57:40;7.53;;;1.92;;
25657;SDS011;13517;59.320;18.042;2022-12-24T06:00:06;6.88;;;2.00;;
25657;SDS011;13517;59.320;18.042;2022-12-24T06:02:32;4.95;;;2.08;;
25657;SDS011;13517;59.320;18.042;2022-12-24T06:04:58;4.78;;;1.77;;
25657;SDS011;13517;59.320;18.042;2022-12-24T06:07:23;4.40;;;1.77;;
25657;SDS011;13517;59.320;18.042;2022-12-24T06:09:48;6.47;;;2.13;;
25657;SDS011;13517;59.320;18.042;2022-12-24T06:12:14;3.67;;;1.80;;
25657;SDS011;13517;59.320;18.042;2022-12-24T06:14:39;3.65;;;2.00;;
25657;SDS011;13517;59.320;18.042;2022-12-24T06:17:05;2.97;;;1.83;;
25657;SDS011;13517;59.320;18.042;2022-12-24T06:19:30;5.68;;;2.13;;
25657;SDS011;13517;59.320;18.042;2022-12-24T06:21:55;6.20;;;2.30;;
25657;SDS011;13517;59.320;18.042;2022-12-24T06:24:21;5.45;;;2.30;;
25657;SDS011;13517;59.320;18.042;2022-12-24T06:26:46;4.30;;;2.15;;
25657;SDS011;13517;59.320;18.042;2022-12-24T06:29:11;7.95;;;2.40;;
25657;SDS011;13517;59.320;18.042;2022-12-24T06:31:37;7.28;;;2.03;;
25657;SDS011;13517;59.320;18.042;2022-12-24T06:34:02;4.05;;;2.15;;
25657;SDS011;13517;59.320;18.042;2022-12-24T06:36:28;4.18;;;2.10;;
25657;SDS011;13517;59.320;18.042;2022-12-24T06:38:53;6.50;;;1.80;;
25657;SDS011;13517;59.320;18.042;2022-12-24T06:41:20;4.28;;;2.17;;
25657;SDS011;13517;59.320;18.042;2022-12-24T06:43:47;6.18;;;2.28;;
25657;SDS011;13517;59.320;18.042;2022-12-24T06:46:14;6.53;;;2.60;;
25657;SDS011;13517;59.320;18.042;2022-12-24T06:48:40;3.83;;;1.85;;
25657;SDS011;13517;59.320;18.042;2022-12-24T06:51:07;3.88;;;1.98;;
25657;SDS011;13517;59.320;18.042;2022-12-24T06:53:32;3.75;;;2.25;;
25657;SDS011;13517;59.320;18.042;2022-12-24T06:56:05;15.10;;;2.70;;
25657;SDS011;13517;59.320;18.042;2022-12-24T06:58:32;6.90;;;2.13;;
25657;SDS011;13517;59.320;18.042;2022-12-24T07:01:02;5.43;;;3.38;;
25657;SDS011;13517;59.320;18.042;2022-12-24T07:03:28;5.45;;;1.92;;
25657;SDS011;13517;59.320;18.042;2022-12-24T07:05:54;9.75;;;2.55;;
25657;SDS011;13517;59.320;18.042;2022-12-24T07:08:19;7.05;;;2.05;;
25657;SDS011;13517;59.320;18.042;2022-12-24T07:10:47;6.45;;;2.30;;
25657;SDS011;13517;59.320;18.042;2022-12-24T07:13:13;6.53;;;3.47;;
25657;SDS011;13517;59.320;18.042;2022-12-24T07:15:39;6.65;;;2.78;;
25657;SDS011;13517;59.320;18.042;2022-12-24T07:18:04;9.38;;;4.55;;
25657;SDS011;13517;59.320;18.042;2022-12-24T07:20:29;8.93;;;4.05;;
25657;SDS011;13517;59.320;18.042;2022-12-24T07:22:55;7.78;;;2.70;;
25657;SDS011;13517;59.320;18.042;2022-12-24T07:25:20;10.18;;;2.78;;
25657;SDS011;13517;59.320;18.042;2022-12-24T07:27:46;5.55;;;2.88;;
25657;SDS011;13517;59.320;18.042;2022-12-24T07:30:11;6.47;;;2.65;;
25657;SDS011;13517;59.320;18.042;2022-12-24T07:32:37;5.88;;;2.75;;
25657;SDS011;13517;59.320;18.042;2022-12-24T07:35:02;9.25;;;3.92;;
25657;SDS011;13517;59.320;18.042;2022-12-24T07:37:28;6.00;;;3.08;;
25657;SDS011;13517;59.320;18.042;2022-12-24T07:39:53;8.35;;;2.63;;
25657;SDS011;13517;59.320;18.042;2022-12-24T07:42:19;11.27;;;3.83;;
25657;SDS011;13517;59.320;18.042;2022-12-24T07:44:44;9.68;;;2.90;;
25657;SDS011;13517;59.320;18.042;2022-12-24T07:47:10;5.45;;;2.67;;
25657;SDS011;13517;59.320;18.042;2022-12-24T07:49:35;7.07;;;3.30;;
25657;SDS011;13517;59.320;18.042;2022-12-24T07:52:01;8.18;;;2.10;;
25657;SDS011;13517;59.320;18.042;2022-12-24T07:54:27;4.85;;;2.53;;
25657;SDS011;13517;59.320;18.042;2022-12-24T07:56:52;5.43;;;2.85;;
25657;SDS011;13517;59.320;18.042;2022-12-24T07:59:19;4.78;;;2.38;;
25657;SDS011;13517;59.320;18.042;2022-12-24T08:01:44;9.38;;;2.72;;
25657;SDS011;13517;59.320;18.042;2022-12-24T08:04:10;10.40;;;3.17;;
25657;SDS011;13517;59.320;18.042;2022-12-24T08:06:36;5.28;;;2.72;;
25657;SDS011;13517;59.320;18.042;2022-12-24T08:09:01;11.30;;;2.70;;
25657;SDS011;13517;59.320;18.042;2022-12-24T08:11:26;7.13;;;2.72;;
25657;SDS011;13517;59.320;18.042;2022-12-24T08:13:52;7.47;;;3.60;;
25657;SDS011;13517;59.320;18.042;2022-12-24T08:16:17;8.50;;;4.22;;
25657;SDS011;13517;59.320;18.042;2022-12-24T08:18:43;9.88;;;4.38;;
25657;SDS011;13517;59.320;18.042;2022-12-24T08:21:08;8.65;;;3.60;;
25657;SDS011;13517;59.320;18.042;2022-12-24T08:23:37;12.15;;;4.72;;
25657;SDS011;13517;59.320;18.042;2022-12-24T08:26:05;6.38;;;3.58;;
25657;SDS011;13517;59.320;18.042;2022-12-24T08:28:32;6.68;;;2.53;;
25657;SDS011;13517;59.320;18.042;2022-12-24T08:30:57;4.40;;;3.08;;
25657;SDS011;13517;59.320;18.042;2022-12-24T08:33:23;6.55;;;3.05;;
25657;SDS011;13517;59.320;18.042;2022-12-24T08:35:49;4.25;;;2.50;;
25657;SDS011;13517;59.320;18.042;2022-12-24T08:38:16;7.20;;;2.60;;
25657;SDS011;13517;59.320;18.042;2022-12-24T08:40:41;8.52;;;3.90;;
25657;SDS011;13517;59.320;18.042;2022-12-24T08:43:07;8.52;;;3.40;;
25657;SDS011;13517;59.320;18.042;2022-12-24T08:45:33;6.15;;;2.78;;
25657;SDS011;13517;59.320;18.042;2022-12-24T08:47:59;7.95;;;3.10;;
25657;SDS011;13517;59.320;18.042;2022-12-24T08:50:24;9.95;;;3.38;;
25657;SDS011;13517;59.320;18.042;2022-12-24T08:52:50;16.80;;;3.72;;
25657;SDS011;13517;59.320;18.042;2022-12-24T08:55:15;7.82;;;3.30;;
25657;SDS011;13517;59.320;18.042;2022-12-24T08:57:41;13.70;;;4.00;;
25657;SDS011;13517;59.320;18.042;2022-12-24T09:00:06;8.32;;;3.05;;
25657;SDS011;13517;59.320;18.042;2022-12-24T09:02:33;11.13;;;4.40;;
25657;SDS011;13517;59.320;18.042;2022-12-24T09:04:59;6.50;;;3.20;;
25657;SDS011;13517;59.320;18.042;2022-12-24T09:07:24;11.00;;;3.70;;
25657;SDS011;13517;59.320;18.042;2022-12-24T09:09:49;9.15;;;3.50;;
25657;SDS011;13517;59.320;18.042;2022-12-24T09:12:15;11.73;;;5.78;;
25657;SDS011;13517;59.320;18.042;2022-12-24T09:14:40;10.43;;;4.88;;
25657;SDS011;13517;59.320;18.042;2022-12-24T09:17:06;8.13;;;3.60;;
25657;SDS011;13517;59.320;18.042;2022-12-24T09:19:31;6.20;;;3.28;;
25657;SDS011;13517;59.320;18.042;2022-12-24T09:21:56;9.65;;;3.17;;
25657;SDS011;13517;59.320;18.042;2022-12-24T09:24:22;8.90;;;3.45;;
25657;SDS011;13517;59.320;18.042;2022-12-24T09:26:47;7.60;;;3.30;;
25657;SDS011;13517;59.320;18.042;2022-12-24T09:29:13;7.65;;;4.28;;
25657;SDS011;13517;59.320;18.042;2022-12-24T09:31:39;7.18;;;3.30;;
25657;SDS011;13517;59.320;18.042;2022-12-24T09:34:05;7.43;;;3.20;;
25657;SDS011;13517;59.320;18.042;2022-12-24T09:36:32;5.38;;;3.05;;
25657;SDS011;13517;59.320;18.042;2022-12-24T09:38:57;6.97;;;2.78;;
25657;SDS011;13517;59.320;18.042;2022-12-24T09:47:03;5.30;;;2.97;;
25657;SDS011;13517;59.320;18.042;2022-12-24T09:49:46;6.28;;;2.63;;
25657;SDS011;13517;59.320;18.042;2022-12-24T09:52:26;7.45;;;2.95;;
25657;SDS011;13517;59.320;18.042;2022-12-24T09:55:19;8.95;;;2.72;;
25657;SDS011;13517;59.320;18.042;2022-12-24T09:57:45;6.35;;;2.78;;
25657;SDS011;13517;59.320;18.042;2022-12-24T10:02:46;7.30;;;3.17;;
25657;SDS011;13517;59.320;18.042;2022-12-24T10:05:14;8.88;;;3.00;;
25657;SDS011;13517;59.320;18.042;2022-12-24T10:07:45;8.70;;;2.95;;
25657;SDS011;13517;59.320;18.042;2022-12-24T10:10:19;6.45;;;2.80;;
25657;SDS011;13517;59.320;18.042;2022-12-24T10:15:39;4.07;;;2.20;;
25657;SDS011;13517;59.320;18.042;2022-12-24T10:24:15;5.85;;;2.20;;
25657;SDS011;13517;59.320;18.042;2022-12-24T10:26:45;8.40;;;2.72;;
25657;SDS011;13517;59.320;18.042;2022-12-24T10:29:19;6.38;;;2.80;;
25657;SDS011;13517;59.320;18.042;2022-12-24T10:31:52;5.43;;;2.92;;
25657;SDS011;13517;59.320;18.042;2022-12-24T10:34:27;9.63;;;2.80;;
25657;SDS011;13517;59.320;18.042;2022-12-24T10:36:55;8.85;;;3.17;;
25657;SDS011;13517;59.320;18.042;2022-12-24T10:39:23;4.20;;;2.30;;
25657;SDS011;13517;59.320;18.042;2022-12-24T10:41:51;6.93;;;2.88;;
25657;SDS011;13517;59.320;18.042;2022-12-24T10:44:22;6.25;;;3.25;;
25657;SDS011;13517;59.320;18.042;2022-12-24T10:46:52;4.88;;;3.40;;
25657;SDS011;13517;59.320;18.042;2022-12-24T10:49:20;11.00;;;3.03;;
25657;SDS011;13517;59.320;18.042;2022-12-24T10:52:05;6.63;;;2.58;;
25657;SDS011;13517;59.320;18.042;2022-12-24T10:54:37;5.25;;;2.47;;
25657;SDS011;13517;59.320;18.042;2022-12-24T10:57:33;6.80;;;2.40;;
25657;SDS011;13517;59.320;18.042;2022-12-24T10:59:59;6.50;;;2.97;;
25657;SDS011;13517;59.320;18.042;2022-12-24T11:05:09;7.57;;;2.10;;
25657;SDS011;13517;59.320;18.042;2022-12-24T11:08:05;7.13;;;2.63;;
25657;SDS011;13517;59.320;18.042;2022-12-24T11:10:39;5.32;;;2.55;;
25657;SDS011;13517;59.320;18.042;2022-12-24T11:13:42;8.10;;;3.38;;
25657;SDS011;13517;59.320;18.042;2022-12-24T11:16:16;10.52;;;3.50;;
25657;SDS011;13517;59.320;18.042;2022-12-24T11:18:49;9.63;;;3.30;;
25657;SDS011;13517;59.320;18.042;2022-12-24T11:21:23;6.95;;;3.53;;
25657;SDS011;13517;59.320;18.042;2022-12-24T11:23:55;15.27;;;4.32;;
25657;SDS011;13517;59.320;18.042;2022-12-24T11:26:24;10.07;;;2.90;;
25657;SDS011;13517;59.320;18.042;2022-12-24T11:31:32;7.13;;;3.25;;
25657;SDS011;13517;59.320;18.042;2022-12-24T11:34:02;5.63;;;2.30;;
25657;SDS011;13517;59.320;18.042;2022-12-24T11:36:42;6.90;;;3.40;;
25657;SDS011;13517;59.320;18.042;2022-12-24T11:39:09;7.13;;;2.80;;
25657;SDS011;13517;59.320;18.042;2022-12-24T11:41:44;9.07;;;2.47;;
25657;SDS011;13517;59.320;18.042;2022-12-24T11:44:10;5.22;;;3.10;;
25657;SDS011;13517;59.320;18.042;2022-12-24T11:51:35;5.38;;;2.90;;
25657;SDS011;13517;59.320;18.042;2022-12-24T11:56:51;4.82;;;2.88;;
25657;SDS011;13517;59.320;18.042;2022-12-24T12:01:54;6.18;;;3.15;;
25657;SDS011;13517;59.320;18.042;2022-12-24T12:04:23;6.35;;;2.67;;
25657;SDS011;13517;59.320;18.042;2022-12-24T12:06:56;10.73;;;3.47;;
25657;SDS011;13517;59.320;18.042;2022-12-24T12:09:40;5.68;;;2.63;;
25657;SDS011;13517;59.320;18.042;2022-12-24T12:15:21;8.18;;;3.28;;
25657;SDS011;13517;59.320;18.042;2022-12-24T12:20:44;10.10;;;4.35;;
25657;SDS011;13517;59.320;18.042;2022-12-24T12:23:28;8.73;;;3.63;;
25657;SDS011;13517;59.320;18.042;2022-12-24T12:26:29;6.32;;;3.38;;
25657;SDS011;13517;59.320;18.042;2022-12-24T12:28:55;10.10;;;3.45;;
25657;SDS011;13517;59.320;18.042;2022-12-24T12:31:33;5.88;;;3.80;;
25657;SDS011;13517;59.320;18.042;2022-12-24T12:34:11;7.13;;;3.63;;
25657;SDS011;13517;59.320;18.042;2022-12-24T12:36:44;10.45;;;4.00;;
25657;SDS011;13517;59.320;18.042;2022-12-24T12:39:13;7.18;;;3.00;;
25657;SDS011;13517;59.320;18.042;2022-12-24T12:55:21;16.52;;;7.30;;
25657;SDS011;13517;59.320;18.042;2022-12-24T12:57:58;10.75;;;4.38;;
25657;SDS011;13517;59.320;18.042;2022-12-24T13:00:28;10.05;;;3.75;;
25657;SDS011;13517;59.320;18.042;2022-12-24T13:03:13;14.13;;;6.32;;
25657;SDS011;13517;59.320;18.042;2022-12-24T13:09:20;22.95;;;8.40;;
25657;SDS011;13517;59.320;18.042;2022-12-24T13:12:24;16.58;;;7.00;;
25657;SDS011;13517;59.320;18.042;2022-12-24T13:20:41;20.25;;;8.10;;
25657;SDS011;13517;59.320;18.042;2022-12-24T13:23:21;23.13;;;10.98;;
25657;SDS011;13517;59.320;18.042;2022-12-24T13:25:51;21.42;;;9.88;;
25657;SDS011;13517;59.320;18.042;2022-12-24T13:30:44;17.58;;;6.28;;
25657;SDS011;13517;59.320;18.042;2022-12-24T13:33:11;11.32;;;4.53;;
25657;SDS011;13517;59.320;18.042;2022-12-24T13:35:55;15.30;;;6.35;;
25657;SDS011;13517;59.320;18.042;2022-12-24T13:40:51;31.67;;;11.77;;
25657;SDS011;13517;59.320;18.042;2022-12-24T13:43:17;16.05;;;6.78;;
25657;SDS011;13517;59.320;18.042;2022-12-24T13:45:46;10.88;;;5.43;;
25657;SDS011;13517;59.320;18.042;2022-12-24T13:48:32;10.98;;;5.65;;
25657;SDS011;13517;59.320;18.042;2022-12-24T13:50:59;13.77;;;5.90;;
25657;SDS011;13517;59.320;18.042;2022-12-24T13:53:43;10.60;;;4.85;;
25657;SDS011;13517;59.320;18.042;2022-12-24T13:58:37;11.80;;;5.57;;
25657;SDS011;13517;59.320;18.042;2022-12-24T14:01:21;15.35;;;5.72;;
25657;SDS011;13517;59.320;18.042;2022-12-24T14:03:58;13.82;;;5.20;;
25657;SDS011;13517;59.320;18.042;2022-12-24T14:06:34;13.65;;;5.65;;
25657;SDS011;13517;59.320;18.042;2022-12-24T14:09:15;11.35;;;4.70;;
25657;SDS011;13517;59.320;18.042;2022-12-24T14:16:54;10.15;;;3.95;;
25657;SDS011;13517;59.320;18.042;2022-12-24T14:19:24;10.55;;;4.15;;
25657;SDS011;13517;59.320;18.042;2022-12-24T14:24:33;9.50;;;3.85;;
25657;SDS011;13517;59.320;18.042;2022-12-24T14:27:07;10.27;;;3.63;;
25657;SDS011;13517;59.320;18.042;2022-12-24T14:30:00;9.57;;;3.85;;
25657;SDS011;13517;59.320;18.042;2022-12-24T14:32:36;13.18;;;4.63;;
25657;SDS011;13517;59.320;18.042;2022-12-24T14:37:38;13.30;;;5.88;;
25657;SDS011;13517;59.320;18.042;2022-12-24T14:40:05;17.17;;;6.30;;
25657;SDS011;13517;59.320;18.042;2022-12-24T14:42:38;21.40;;;5.47;;
25657;SDS011;13517;59.320;18.042;2022-12-24T14:56:18;5.82;;;3.95;;
25657;SDS011;13517;59.320;18.042;2022-12-24T14:58:45;6.68;;;3.92;;
25657;SDS011;13517;59.320;18.042;2022-12-24T15:01:21;7.18;;;3.83;;
25657;SDS011;13517;59.320;18.042;2022-12-24T15:04:02;9.45;;;4.03;;
25657;SDS011;13517;59.320;18.042;2022-12-24T15:06:33;7.32;;;4.47;;
25657;SDS011;13517;59.320;18.042;2022-12-24T15:09:02;10.75;;;4.63;;
25657;SDS011;13517;59.320;18.042;2022-12-24T15:11:28;8.40;;;4.25;;
25657;SDS011;13517;59.320;18.042;2022-12-24T15:13:55;12.00;;;5.15;;
25657;SDS011;13517;59.320;18.042;2022-12-24T15:16:24;12.07;;;5.03;;
25657;SDS011;13517;59.320;18.042;2022-12-24T15:18:54;11.55;;;5.80;;
25657;SDS011;13517;59.320;18.042;2022-12-24T15:21:33;17.05;;;6.95;;
25657;SDS011;13517;59.320;18.042;2022-12-24T15:24:05;15.32;;;6.10;;
25657;SDS011;13517;59.320;18.042;2022-12-24T15:27:14;12.45;;;5.68;;
25657;SDS011;13517;59.320;18.042;2022-12-24T15:29:43;14.90;;;5.85;;
25657;SDS011;13517;59.320;18.042;2022-12-24T15:32:13;15.45;;;6.38;;
25657;SDS011;13517;59.320;18.042;2022-12-24T15:39:52;17.27;;;7.25;;
25657;SDS011;13517;59.320;18.042;2022-12-24T15:42:30;20.85;;;8.10;;
25657;SDS011;13517;59.320;18.042;2022-12-24T15:45:06;14.02;;;6.40;;
25657;SDS011;13517;59.320;18.042;2022-12-24T15:47:38;28.77;;;12.07;;
25657;SDS011;13517;59.320;18.042;2022-12-24T15:50:17;17.73;;;8.05;;
25657;SDS011;13517;59.320;18.042;2022-12-24T15:52:43;19.00;;;8.02;;
25657;SDS011;13517;59.320;18.042;2022-12-24T15:58:12;23.50;;;8.70;;
25657;SDS011;13517;59.320;18.042;2022-12-24T16:03:30;21.00;;;7.32;;
25657;SDS011;13517;59.320;18.042;2022-12-24T16:06:06;14.68;;;6.13;;
25657;SDS011;13517;59.320;18.042;2022-12-24T16:08:36;16.13;;;6.57;;
25657;SDS011;13517;59.320;18.042;2022-12-24T16:13:29;11.55;;;5.68;;
25657;SDS011;13517;59.320;18.042;2022-12-24T16:15:58;10.35;;;4.90;;
25657;SDS011;13517;59.320;18.042;2022-12-24T16:18:30;12.07;;;5.70;;
25657;SDS011;13517;59.320;18.042;2022-12-24T16:20:59;10.82;;;5.13;;
25657;SDS011;13517;59.320;18.042;2022-12-24T16:23:26;12.95;;;5.10;;
25657;SDS011;13517;59.320;18.042;2022-12-24T16:26:12;8.65;;;4.57;;
25657;SDS011;13517;59.320;18.042;2022-12-24T16:28:38;11.07;;;4.85;;
25657;SDS011;13517;59.320;18.042;2022-12-24T16:31:03;12.35;;;4.40;;
25657;SDS011;13517;59.320;18.042;2022-12-24T16:33:29;15.40;;;5.70;;
25657;SDS011;13517;59.320;18.042;2022-12-24T16:35:55;21.88;;;6.03;;
25657;SDS011;13517;59.320;18.042;2022-12-24T16:38:21;13.30;;;6.45;;
25657;SDS011;13517;59.320;18.042;2022-12-24T16:40:46;11.57;;;5.38;;
25657;SDS011;13517;59.320;18.042;2022-12-24T16:43:12;13.02;;;5.10;;
25657;SDS011;13517;59.320;18.042;2022-12-24T16:48:29;11.68;;;5.30;;
25657;SDS011;13517;59.320;18.042;2022-12-24T16:50:57;13.20;;;5.97;;
25657;SDS011;13517;59.320;18.042;2022-12-24T16:53:23;15.20;;;5.97;;
25657;SDS011;13517;59.320;18.042;2022-12-24T16:55:49;14.82;;;6.90;;
25657;SDS011;13517;59.320;18.042;2022-12-24T16:58:16;13.68;;;6.00;;
25657;SDS011;13517;59.320;18.042;2022-12-24T17:00:42;14.25;;;5.78;;
25657;SDS011;13517;59.320;18.042;2022-12-24T17:03:08;12.18;;;6.00;;
25657;SDS011;13517;59.320;18.042;2022-12-24T17:05:38;12.60;;;6.05;;